createdAt,value
2022-08-19T00:04:43.509Z,22.22
2022-08-19T00:09:46.275Z,22.34
2022-08-19T00:14:50.279Z,21.81
2022-08-19T00:19:52.980Z,22.31
2022-08-19T00:24:56.250Z,22.40
2022-08-19T00:30:03.810Z,22.12
2022-08-19T00:35:07.529Z,21.90
2022-08-19T00:40:14.156Z,21.87
2022-08-19T00:45:26.293Z,21.89
2022-08-19T00:50:28.997Z,20.61
2022-08-19T00:55:34.517Z,21.88
2022-08-19T01:00:39.101Z,21.79
2022-08-19T01:05:44.174Z,21.45
2022-08-19T01:10:49.390Z,20.61
2022-08-19T01:15:58.324Z,21.68
2022-08-19T01:21:07.198Z,21.20
2022-08-19T01:26:14.363Z,21.19
2022-08-19T01:31:27.329Z,21.40
2022-08-19T01:36:37.692Z,21.34
2022-08-19T01:41:41.764Z,21.58
2022-08-19T01:46:45.724Z,21.76
2022-08-19T01:51:49.090Z,21.67
2022-08-19T01:56:55.108Z,21.28
2022-08-19T02:01:59.137Z,21.48
2022-08-19T02:07:01.919Z,21.77
2022-08-19T02:12:06.948Z,20.95
2022-08-19T02:17:09.689Z,21.07
2022-08-19T02:22:12.744Z,21.15
2022-08-19T02:27:17.612Z,21.34
2022-08-19T02:32:21.428Z,21.02
2022-08-19T02:37:41.688Z,20.92
2022-08-19T02:42:47.235Z,21.66
2022-08-19T02:47:49.945Z,21.51
2022-08-19T02:52:52.828Z,19.98
2022-08-19T02:57:57.960Z,21.02
2022-08-19T03:03:01.356Z,21.01
2022-08-19T03:08:06.568Z,21.28
2022-08-19T03:13:10.596Z,21.55
2022-08-19T03:18:14.432Z,21.24
2022-08-19T03:23:18.355Z,21.42
2022-08-19T03:28:23.097Z,21.28
2022-08-19T03:33:28.651Z,21.37
2022-08-19T03:38:33.180Z,21.20
2022-08-19T03:43:38.818Z,21.15
2022-08-19T03:48:43.451Z,21.51
2022-08-19T03:53:46.127Z,21.11
2022-08-19T03:58:50.280Z,21.21
2022-08-19T04:03:53.538Z,21.25
2022-08-19T04:08:59.657Z,20.72
2022-08-19T04:14:04.442Z,20.39
2022-08-19T04:19:08.255Z,20.84
2022-08-19T04:24:11.795Z,21.12
2022-08-19T04:29:18.233Z,20.77
2022-08-19T04:34:24.340Z,21.05
2022-08-19T04:39:50.416Z,20.53
2022-08-19T04:44:55.225Z,20.70
2022-08-19T04:49:58.194Z,20.10
2022-08-19T04:55:01.186Z,21.03
2022-08-19T05:00:06.140Z,21.15
2022-08-19T05:05:09.861Z,20.86
2022-08-19T05:10:13.261Z,20.92
2022-08-19T05:15:17.950Z,20.89
2022-08-19T05:20:38.515Z,20.82
2022-08-19T05:25:42.159Z,20.95
2022-08-19T05:30:47.716Z,20.62
2022-08-19T05:35:53.461Z,20.54
2022-08-19T05:53:53.751Z,20.05
2022-08-19T05:58:56.896Z,20.07
2022-08-19T06:04:02.753Z,20.36
2022-08-19T06:09:07.175Z,20.76
2022-08-19T06:14:16.538Z,20.46
2022-08-19T06:19:25.153Z,20.72
2022-08-19T06:24:30.329Z,21.04
2022-08-19T06:29:33.482Z,21.05
2022-08-19T06:34:37.576Z,20.89
2022-08-19T06:39:42.232Z,21.16
2022-08-19T06:44:48.725Z,20.96
2022-08-19T06:49:56.511Z,21.14
2022-08-19T06:55:06.262Z,21.36
2022-08-19T07:00:14.350Z,21.25
2022-08-19T07:05:18.840Z,21.76
2022-08-19T07:10:22.950Z,21.90
2022-08-19T07:15:28.492Z,21.94
2022-08-19T07:20:33.726Z,21.94
2022-08-19T07:25:38.119Z,21.87
2022-08-19T07:30:41.739Z,22.14
2022-08-19T07:35:48.004Z,21.96
2022-08-19T07:40:52.325Z,22.46
2022-08-19T07:45:57.431Z,22.39
2022-08-19T07:51:03.620Z,22.39
2022-08-19T07:56:07.059Z,22.59
2022-08-19T08:01:13.060Z,22.69
2022-08-19T08:06:35.558Z,22.68
2022-08-19T08:11:38.245Z,22.91
2022-08-19T08:16:46.800Z,22.43
2022-08-19T08:21:53.865Z,22.74
2022-08-19T08:26:57.766Z,22.73
2022-08-19T08:32:00.588Z,22.91
2022-08-19T08:37:05.287Z,22.92
2022-08-19T08:42:17.862Z,22.83
2022-08-19T08:47:24.168Z,23.22
2022-08-19T08:52:32.226Z,23.24
2022-08-19T08:57:40.879Z,23.10
2022-08-19T09:02:44.116Z,23.16
2022-08-19T09:07:54.417Z,23.18
2022-08-19T09:13:09.492Z,23.33
2022-08-19T09:18:19.011Z,23.46
2022-08-19T09:23:26.675Z,23.29
2022-08-19T09:28:30.527Z,23.19
2022-08-19T09:33:35.419Z,23.55
2022-08-19T09:38:43.568Z,23.56
2022-08-19T09:43:48.585Z,23.50
2022-08-19T09:48:54.817Z,23.33
2022-08-19T09:54:02.529Z,23.70
2022-08-19T09:59:07.663Z,23.66
2022-08-19T10:04:19.934Z,23.74
2022-08-19T10:09:33.727Z,23.84
2022-08-19T10:14:37.775Z,23.68
2022-08-19T10:19:41.967Z,23.90
2022-08-19T10:24:59.474Z,24.02
2022-08-19T10:30:02.150Z,24.11
2022-08-19T10:35:09.026Z,24.01
2022-08-19T10:40:14.314Z,24.27
2022-08-19T10:45:17.548Z,23.52
2022-08-19T10:50:38.331Z,24.47
2022-08-19T10:56:00.240Z,24.47
2022-08-19T11:01:03.200Z,24.67
2022-08-19T11:06:08.503Z,24.67
2022-08-19T11:11:13.210Z,24.74
2022-08-19T11:16:18.611Z,24.56
2022-08-19T11:21:25.941Z,24.49
2022-08-19T11:26:31.244Z,24.70
2022-08-19T11:31:40.087Z,24.72
2022-08-19T11:36:45.062Z,24.65
2022-08-19T11:41:49.395Z,24.80
2022-08-19T11:46:53.348Z,25.04
2022-08-19T11:51:56.384Z,25.25
2022-08-19T11:57:02.052Z,25.30
2022-08-19T12:02:04.971Z,25.36
2022-08-19T12:07:08.005Z,25.25
2022-08-19T12:12:13.816Z,24.96
2022-08-19T12:17:16.790Z,25.82
2022-08-19T12:22:21.821Z,25.93
2022-08-19T12:27:39.972Z,26.07
2022-08-19T12:32:43.394Z,25.90
2022-08-19T12:37:53.604Z,26.03
2022-08-19T12:43:01.689Z,26.40
2022-08-19T12:48:33.599Z,26.05
2022-08-19T12:53:29.635Z,26.55
2022-08-19T12:58:35.447Z,26.75
2022-08-19T13:03:40.615Z,26.37
2022-08-19T13:08:46.609Z,26.44
2022-08-19T13:13:56.033Z,26.57
2022-08-19T13:18:59.736Z,26.97
2022-08-19T13:24:02.488Z,27.10
2022-08-19T13:29:23.861Z,26.70
2022-08-19T13:34:34.764Z,27.30
2022-08-19T13:39:37.905Z,27.51
2022-08-19T13:44:43.470Z,27.58
2022-08-19T13:49:47.125Z,27.65
2022-08-19T13:54:50.173Z,27.79
2022-08-19T13:59:59.063Z,26.53
2022-08-19T14:05:01.862Z,27.75
2022-08-19T14:10:05.728Z,27.73
2022-08-19T14:15:12.554Z,27.87
2022-08-19T14:20:18.747Z,27.77
2022-08-19T14:25:23.745Z,27.93
2022-08-19T14:30:32.679Z,27.53
2022-08-19T14:35:35.720Z,28.08
2022-08-19T14:40:38.732Z,27.96
2022-08-19T14:45:42.846Z,27.87
2022-08-19T14:50:46.828Z,28.01
2022-08-19T14:55:49.469Z,27.80
2022-08-19T15:00:53.474Z,27.27
2022-08-19T15:05:56.445Z,27.13
2022-08-19T15:11:00.156Z,27.00
2022-08-19T15:16:07.086Z,26.93
2022-08-19T15:21:26.773Z,26.82
2022-08-19T15:26:33.202Z,26.67
2022-08-19T15:31:38.211Z,26.76
2022-08-19T15:36:41.757Z,26.39
2022-08-19T15:41:45.218Z,26.65
2022-08-19T15:46:50.059Z,26.62
2022-08-19T15:51:54.075Z,26.59
2022-08-19T15:57:14.081Z,26.41
2022-08-19T16:02:37.383Z,26.37
2022-08-19T16:07:40.424Z,26.31
2022-08-19T16:12:43.086Z,25.87
2022-08-19T16:17:56.321Z,26.24
2022-08-19T16:23:03.309Z,26.30
2022-08-19T16:28:08.624Z,26.13
2022-08-19T16:33:12.979Z,26.06
2022-08-19T16:38:25.881Z,26.11
2022-08-19T16:43:31.872Z,26.05
2022-08-19T16:48:43.090Z,25.69
2022-08-19T16:53:46.767Z,25.74
2022-08-19T16:58:50.591Z,26.05
2022-08-19T17:03:55.351Z,25.97
2022-08-19T17:09:01.233Z,25.80
2022-08-19T17:14:09.916Z,25.79
2022-08-19T17:19:14.918Z,25.81
2022-08-19T17:24:20.361Z,25.77
2022-08-19T17:29:23.291Z,25.40
2022-08-19T17:34:28.026Z,25.67
2022-08-19T17:39:31.147Z,25.55
2022-08-19T17:44:42.332Z,25.48
2022-08-19T17:49:49.101Z,25.46
2022-08-19T17:54:52.092Z,25.33
2022-08-19T18:00:03.343Z,24.97
2022-08-19T18:05:15.925Z,25.22
2022-08-19T18:10:18.833Z,25.12
2022-08-19T18:15:27.613Z,25.10
2022-08-19T18:20:32.595Z,24.88
2022-08-19T18:25:35.253Z,24.77
2022-08-19T18:30:38.086Z,24.78
2022-08-19T18:35:45.738Z,24.73
2022-08-19T18:41:06.201Z,24.34
2022-08-19T18:46:26.597Z,24.49
2022-08-19T18:51:35.359Z,24.66
2022-08-19T18:56:43.803Z,24.38
2022-08-19T19:01:50.413Z,24.43
2022-08-19T19:06:55.371Z,24.29
2022-08-19T19:12:01.050Z,24.28
2022-08-19T19:17:08.016Z,24.32
2022-08-19T19:22:16.008Z,24.02
2022-08-19T19:27:21.242Z,23.98
2022-08-19T19:32:27.553Z,24.09
2022-08-19T19:37:31.990Z,23.77
2022-08-19T19:42:35.158Z,24.20
2022-08-19T19:47:37.980Z,24.19
2022-08-19T19:52:45.721Z,24.16
2022-08-19T19:57:49.612Z,24.12
2022-08-19T20:02:53.433Z,24.08
2022-08-19T20:08:14.992Z,24.03
2022-08-19T20:13:17.923Z,23.98
2022-08-19T20:18:23.846Z,24.06
2022-08-19T20:23:28.021Z,23.99
2022-08-19T20:28:31.819Z,23.89
2022-08-19T20:33:35.220Z,23.97
2022-08-19T20:38:41.855Z,24.14
2022-08-19T20:43:44.925Z,23.94
2022-08-19T20:48:47.608Z,23.91
2022-08-19T20:53:56.979Z,24.00
2022-08-19T20:59:04.215Z,23.94
2022-08-19T21:04:07.218Z,23.76
2022-08-19T21:09:11.355Z,23.55
2022-08-19T21:14:14.389Z,23.66
2022-08-19T21:19:19.046Z,23.43
2022-08-19T21:24:31.713Z,22.77
2022-08-19T21:29:37.506Z,23.37
2022-08-19T21:34:40.309Z,23.20
2022-08-19T21:39:44.762Z,23.18
2022-08-19T21:44:47.661Z,23.08
2022-08-19T21:49:50.287Z,23.00
2022-08-19T21:54:57.982Z,23.09
2022-08-19T22:00:01.344Z,23.12
2022-08-19T22:05:09.516Z,22.83
2022-08-19T22:10:13.848Z,22.86
2022-08-19T22:15:16.997Z,22.94
2022-08-19T22:20:25.042Z,22.79
2022-08-19T22:25:36.228Z,22.98
2022-08-19T22:30:41.892Z,22.84
2022-08-19T22:35:57.649Z,23.12
2022-08-19T22:41:05.689Z,23.13
2022-08-19T22:46:15.093Z,23.01
2022-08-19T22:51:46.999Z,23.05
2022-08-19T22:56:51.762Z,23.01
2022-08-19T23:01:54.620Z,22.98
2022-08-19T23:06:57.298Z,22.81
2022-08-19T23:12:01.503Z,22.80
2022-08-19T23:17:04.647Z,22.85
2022-08-19T23:22:08.260Z,22.61
2022-08-19T23:27:29.955Z,22.60
2022-08-19T23:32:35.906Z,22.80
2022-08-19T23:37:39.009Z,22.72
2022-08-19T23:42:46.431Z,22.73
2022-08-19T23:47:49.073Z,22.64
2022-08-19T23:52:54.433Z,22.68
2022-08-19T23:57:59.039Z,22.59
